TimeICT,TemperatureF,Dew PointF,Humidity,Sea Level PressureIn,VisibilityMPH,Wind Direction,Wind SpeedMPH,Gust SpeedMPH,PrecipitationIn,Events,Conditions,WindDirDegrees,DateUTC
12:00 AM,80.6,77.0,89,29.77,5.0,Calm,Calm,-,N/A,,Unknown,0,2012-11-08 17:00:00
12:30 AM,80.6,77.0,89,29.77,5.0,Calm,Calm,-,N/A,,Unknown,0,2012-11-08 17:30:00
7:00 AM,80.6,77.0,89,29.80,5.6,Calm,Calm,-,N/A,,Partly Cloudy,0,2012-11-09 00:00:00
7:30 AM,82.4,77.0,84,29.83,5.6,Variable,1.2,-,N/A,,Partly Cloudy,0,2012-11-09 00:30:00
8:00 AM,82.4,77.0,84,29.83,5.6,Variable,1.2,-,N/A,,Partly Cloudy,0,2012-11-09 01:00:00
8:30 AM,84.2,77.0,79,29.83,5.6,Variable,3.5,-,N/A,,Partly Cloudy,0,2012-11-09 01:30:00
9:00 AM,86.0,77.0,74,29.83,6.2,Variable,1.2,-,N/A,,Partly Cloudy,0,2012-11-09 02:00:00
9:30 AM,87.8,75.2,66,29.83,6.2,Variable,1.2,-,N/A,,Partly Cloudy,0,2012-11-09 02:30:00
10:00 AM,87.8,73.4,62,29.83,6.2,Variable,2.3,-,N/A,,Partly Cloudy,0,2012-11-09 03:00:00
10:30 AM,87.8,73.4,62,29.83,6.2,Variable,2.3,-,N/A,,Scattered Clouds,0,2012-11-09 03:30:00
11:00 AM,91.4,77.0,63,29.80,6.2,Variable,3.5,-,N/A,,Scattered Clouds,0,2012-11-09 04:00:00
11:30 AM,89.6,75.2,62,29.80,6.2,Variable,1.2,-,N/A,,Partly Cloudy,0,2012-11-09 04:30:00
12:00 PM,91.4,75.2,59,29.77,6.2,Variable,3.5,-,N/A,,Partly Cloudy,0,2012-11-09 05:00:00
12:30 PM,91.4,77.0,63,29.77,6.2,South,6.9,-,N/A,,Partly Cloudy,170,2012-11-09 05:30:00
1:00 PM,91.4,77.0,63,29.74,6.2,South,6.9,-,N/A,,Partly Cloudy,180,2012-11-09 06:00:00
1:30 PM,91.4,77.0,63,29.74,6.2,South,5.8,-,N/A,,Partly Cloudy,170,2012-11-09 06:30:00
2:00 PM,89.6,77.0,66,29.74,6.2,SSW,6.9,-,N/A,,Partly Cloudy,200,2012-11-09 07:00:00
2:30 PM,89.6,75.2,62,29.71,6.2,SSW,6.9,-,N/A,,Partly Cloudy,200,2012-11-09 07:30:00
3:00 PM,87.8,75.2,66,29.71,6.2,South,5.8,-,N/A,,Partly Cloudy,190,2012-11-09 08:00:00
3:30 PM,87.8,75.2,66,29.71,6.2,SSW,5.8,-,N/A,,Partly Cloudy,210,2012-11-09 08:30:00
4:00 PM,87.8,75.2,66,29.71,6.2,SW,4.6,-,N/A,,Partly Cloudy,220,2012-11-09 09:00:00
4:30 PM,86.0,75.2,70,29.71,6.2,Calm,Calm,-,N/A,,Partly Cloudy,0,2012-11-09 09:30:00
5:00 PM,86.0,75.2,70,29.71,6.2,Calm,Calm,-,N/A,,Partly Cloudy,0,2012-11-09 10:00:00
5:30 PM,86.0,75.2,70,29.71,6.2,Calm,Calm,-,N/A,,Partly Cloudy,0,2012-11-09 10:30:00
6:00 PM,84.2,78.8,84,29.74,6.2,Calm,Calm,-,N/A,,Partly Cloudy,0,2012-11-09 11:00:00
6:30 PM,84.2,78.8,84,29.74,5.6,Calm,Calm,-,N/A,,Scattered Clouds,0,2012-11-09 11:30:00
7:00 PM,84.2,77.0,79,29.74,5.6,Calm,Calm,-,N/A,,Scattered Clouds,0,2012-11-09 12:00:00
7:30 PM,82.4,78.8,89,29.77,5.6,Calm,Calm,-,N/A,,Scattered Clouds,0,2012-11-09 12:30:00
8:00 PM,82.4,78.8,89,29.77,5.6,Calm,Calm,-,N/A,,Scattered Clouds,0,2012-11-09 13:00:00
8:30 PM,82.4,78.8,89,29.77,5.6,Calm,Calm,-,N/A,,Scattered Clouds,0,2012-11-09 13:30:00
9:00 PM,82.4,78.8,89,29.80,5.6,Calm,Calm,-,N/A,,Scattered Clouds,0,2012-11-09 14:00:00
9:30 PM,82.4,78.8,89,29.80,5.6,Calm,Calm,-,N/A,,Scattered Clouds,0,2012-11-09 14:30:00
10:00 PM,82.4,77.0,84,29.80,5.6,Variable,2.3,-,N/A,,Scattered Clouds,0,2012-11-09 15:00:00
10:30 PM,82.4,75.2,79,29.80,5.6,Variable,2.3,-,N/A,,Scattered Clouds,0,2012-11-09 15:30:00
11:00 PM,82.4,77.0,84,29.80,5.6,Calm,Calm,-,N/A,,Scattered Clouds,0,2012-11-09 16:00:00
11:30 PM,80.6,77.0,89,29.80,5.6,Calm,Calm,-,N/A,,Scattered Clouds,0,2012-11-09 16:30:00